Easton, Pennsylvania
Current Conditions -  °F | °C
As of 7:51 AM on Friday 24 Oct 2014 (Local Time) from KABE Reporting Station
Overcast Overcast  
Wind Chill: 54°   Ceiling: 3400
Heat Index: 54°   Visibility: 10mi
Dew Point: 41°   Wind: 18mph
Humidity: 62%   Direction: 330°NNW
Pressure: 29.87"   Gusts: 25mph
Location:  40.69°N, 75.21°W
Report Text: KABE 241151Z 33016G22KT 10SM BKN034 OVC080 12/05 A2987 RMK AO2 SLP114 T01220050 10128 20117 53007
Loading
Personal Weather Stations






























Interactive Weather Map
Tropical Storm Tracking
New forecast layout! Learn more

10-Day Weather Forecast

Advertisements
Track Severe Weather on mobile